sensor_id;sensor_type;location;lat;lon;timestamp;P1;durP1;ratioP1;P2;durP2;ratioP2
15285;SDS011;7744;52.172;10.668;2023-04-29T00:00:38;24.80;;;22.17;;
15285;SDS011;7744;52.172;10.668;2023-04-29T00:03:04;26.63;;;22.60;;
15285;SDS011;7744;52.172;10.668;2023-04-29T00:05:29;25.23;;;22.40;;
15285;SDS011;7744;52.172;10.668;2023-04-29T00:07:55;24.70;;;21.63;;
15285;SDS011;7744;52.172;10.668;2023-04-29T00:10:21;24.53;;;21.93;;
15285;SDS011;7744;52.172;10.668;2023-04-29T00:12:47;25.20;;;22.50;;
15285;SDS011;7744;52.172;10.668;2023-04-29T00:15:13;24.48;;;21.08;;
15285;SDS011;7744;52.172;10.668;2023-04-29T00:17:39;24.73;;;21.00;;
15285;SDS011;7744;52.172;10.668;2023-04-29T00:20:05;24.10;;;21.53;;
15285;SDS011;7744;52.172;10.668;2023-04-29T00:22:32;22.97;;;20.57;;
15285;SDS011;7744;52.172;10.668;2023-04-29T00:24:57;21.60;;;19.40;;
15285;SDS011;7744;52.172;10.668;2023-04-29T00:27:23;22.27;;;19.90;;
15285;SDS011;7744;52.172;10.668;2023-04-29T00:29:49;21.40;;;19.17;;
15285;SDS011;7744;52.172;10.668;2023-04-29T00:32:14;21.53;;;19.07;;
15285;SDS011;7744;52.172;10.668;2023-04-29T00:34:40;20.85;;;18.73;;
15285;SDS011;7744;52.172;10.668;2023-04-29T00:37:06;21.40;;;19.00;;
15285;SDS011;7744;52.172;10.668;2023-04-29T00:39:32;21.52;;;19.00;;
15285;SDS011;7744;52.172;10.668;2023-04-29T00:41:57;21.35;;;19.05;;
15285;SDS011;7744;52.172;10.668;2023-04-29T00:44:23;21.23;;;18.95;;
15285;SDS011;7744;52.172;10.668;2023-04-29T00:46:49;20.88;;;18.77;;
15285;SDS011;7744;52.172;10.668;2023-04-29T00:49:15;20.50;;;17.58;;
15285;SDS011;7744;52.172;10.668;2023-04-29T00:51:40;21.02;;;18.80;;
15285;SDS011;7744;52.172;10.668;2023-04-29T00:54:06;22.67;;;18.13;;
15285;SDS011;7744;52.172;10.668;2023-04-29T00:56:33;19.25;;;16.88;;
15285;SDS011;7744;52.172;10.668;2023-04-29T00:59:01;21.85;;;18.05;;
15285;SDS011;7744;52.172;10.668;2023-04-29T01:01:29;22.40;;;18.27;;
15285;SDS011;7744;52.172;10.668;2023-04-29T01:03:55;20.40;;;18.17;;
15285;SDS011;7744;52.172;10.668;2023-04-29T01:15:11;24.03;;;20.63;;
15285;SDS011;7744;52.172;10.668;2023-04-29T01:17:50;24.00;;;20.53;;
15285;SDS011;7744;52.172;10.668;2023-04-29T01:20:44;27.90;;;22.60;;
15285;SDS011;7744;52.172;10.668;2023-04-29T01:23:10;24.85;;;21.30;;
15285;SDS011;7744;52.172;10.668;2023-04-29T01:25:36;26.63;;;22.07;;
15285;SDS011;7744;52.172;10.668;2023-04-29T01:31:03;27.50;;;22.33;;
15285;SDS011;7744;52.172;10.668;2023-04-29T01:33:43;30.50;;;25.50;;
15285;SDS011;7744;52.172;10.668;2023-04-29T01:36:34;30.20;;;24.57;;
15285;SDS011;7744;52.172;10.668;2023-04-29T01:39:13;29.23;;;23.47;;
15285;SDS011;7744;52.172;10.668;2023-04-29T01:44:54;31.53;;;24.97;;
15285;SDS011;7744;52.172;10.668;2023-04-29T01:47:21;29.93;;;25.13;;
15285;SDS011;7744;52.172;10.668;2023-04-29T01:49:50;35.37;;;26.60;;
15285;SDS011;7744;52.172;10.668;2023-04-29T01:52:16;31.87;;;25.17;;
15285;SDS011;7744;52.172;10.668;2023-04-29T01:54:49;32.77;;;25.53;;
15285;SDS011;7744;52.172;10.668;2023-04-29T01:57:18;33.53;;;26.57;;
15285;SDS011;7744;52.172;10.668;2023-04-29T01:59:46;32.27;;;25.67;;
15285;SDS011;7744;52.172;10.668;2023-04-29T02:02:12;35.50;;;26.87;;
15285;SDS011;7744;52.172;10.668;2023-04-29T02:04:45;34.97;;;26.83;;
15285;SDS011;7744;52.172;10.668;2023-04-29T02:07:10;36.97;;;27.30;;
15285;SDS011;7744;52.172;10.668;2023-04-29T02:09:36;37.33;;;27.57;;
15285;SDS011;7744;52.172;10.668;2023-04-29T02:12:01;36.30;;;27.40;;
15285;SDS011;7744;52.172;10.668;2023-04-29T02:14:28;38.40;;;28.63;;
15285;SDS011;7744;52.172;10.668;2023-04-29T02:16:55;37.70;;;28.27;;
15285;SDS011;7744;52.172;10.668;2023-04-29T02:19:21;40.23;;;29.70;;
15285;SDS011;7744;52.172;10.668;2023-04-29T02:21:46;38.97;;;29.97;;
15285;SDS011;7744;52.172;10.668;2023-04-29T02:24:12;43.60;;;31.50;;
15285;SDS011;7744;52.172;10.668;2023-04-29T02:26:38;40.07;;;29.97;;
15285;SDS011;7744;52.172;10.668;2023-04-29T02:29:03;41.57;;;28.53;;
15285;SDS011;7744;52.172;10.668;2023-04-29T02:31:29;44.83;;;30.97;;
15285;SDS011;7744;52.172;10.668;2023-04-29T02:33:55;41.13;;;30.83;;
15285;SDS011;7744;52.172;10.668;2023-04-29T02:36:21;39.80;;;30.10;;
15285;SDS011;7744;52.172;10.668;2023-04-29T02:38:46;40.83;;;29.57;;
15285;SDS011;7744;52.172;10.668;2023-04-29T02:41:17;41.93;;;30.73;;
15285;SDS011;7744;52.172;10.668;2023-04-29T02:43:43;44.10;;;30.30;;
15285;SDS011;7744;52.172;10.668;2023-04-29T02:46:16;42.13;;;29.53;;
15285;SDS011;7744;52.172;10.668;2023-04-29T02:48:42;40.90;;;28.63;;
15285;SDS011;7744;52.172;10.668;2023-04-29T02:51:11;36.83;;;26.73;;
15285;SDS011;7744;52.172;10.668;2023-04-29T02:53:38;40.07;;;27.40;;
15285;SDS011;7744;52.172;10.668;2023-04-29T02:56:06;38.77;;;27.73;;
15285;SDS011;7744;52.172;10.668;2023-04-29T02:58:32;39.63;;;27.50;;
15285;SDS011;7744;52.172;10.668;2023-04-29T03:01:06;39.47;;;27.20;;
15285;SDS011;7744;52.172;10.668;2023-04-29T03:03:40;40.47;;;27.23;;
15285;SDS011;7744;52.172;10.668;2023-04-29T03:06:08;41.13;;;27.97;;
15285;SDS011;7744;52.172;10.668;2023-04-29T03:08:37;39.63;;;27.60;;
15285;SDS011;7744;52.172;10.668;2023-04-29T03:11:08;37.70;;;26.03;;
15285;SDS011;7744;52.172;10.668;2023-04-29T03:13:34;36.10;;;25.10;;
15285;SDS011;7744;52.172;10.668;2023-04-29T03:16:00;35.83;;;25.13;;
15285;SDS011;7744;52.172;10.668;2023-04-29T03:18:25;35.97;;;23.43;;
15285;SDS011;7744;52.172;10.668;2023-04-29T03:20:54;33.13;;;23.10;;
15285;SDS011;7744;52.172;10.668;2023-04-29T03:23:28;32.60;;;22.27;;
15285;SDS011;7744;52.172;10.668;2023-04-29T03:25:53;32.17;;;22.77;;
15285;SDS011;7744;52.172;10.668;2023-04-29T03:28:19;32.87;;;23.27;;
15285;SDS011;7744;52.172;10.668;2023-04-29T03:30:45;31.10;;;22.10;;
15285;SDS011;7744;52.172;10.668;2023-04-29T03:33:14;30.67;;;22.07;;
15285;SDS011;7744;52.172;10.668;2023-04-29T03:35:45;27.73;;;20.70;;
15285;SDS011;7744;52.172;10.668;2023-04-29T03:41:00;26.33;;;18.47;;
15285;SDS011;7744;52.172;10.668;2023-04-29T03:43:29;29.83;;;20.20;;
15285;SDS011;7744;52.172;10.668;2023-04-29T03:46:20;26.53;;;18.70;;
15285;SDS011;7744;52.172;10.668;2023-04-29T03:48:45;24.97;;;18.83;;
15285;SDS011;7744;52.172;10.668;2023-04-29T03:51:17;27.03;;;18.77;;
15285;SDS011;7744;52.172;10.668;2023-04-29T03:53:49;26.47;;;18.83;;
15285;SDS011;7744;52.172;10.668;2023-04-29T03:56:31;26.67;;;18.70;;
15285;SDS011;7744;52.172;10.668;2023-04-29T04:02:23;30.23;;;21.20;;
15285;SDS011;7744;52.172;10.668;2023-04-29T04:04:51;31.10;;;23.27;;
15285;SDS011;7744;52.172;10.668;2023-04-29T04:07:50;32.03;;;23.27;;
15285;SDS011;7744;52.172;10.668;2023-04-29T04:10:34;29.67;;;22.80;;
15285;SDS011;7744;52.172;10.668;2023-04-29T04:12:59;33.93;;;25.23;;
15285;SDS011;7744;52.172;10.668;2023-04-29T04:15:25;34.23;;;24.47;;
15285;SDS011;7744;52.172;10.668;2023-04-29T04:17:53;31.10;;;23.33;;
15285;SDS011;7744;52.172;10.668;2023-04-29T04:20:19;32.90;;;25.17;;
15285;SDS011;7744;52.172;10.668;2023-04-29T04:22:44;30.03;;;23.70;;
15285;SDS011;7744;52.172;10.668;2023-04-29T04:25:10;33.27;;;25.53;;
15285;SDS011;7744;52.172;10.668;2023-04-29T04:27:36;31.53;;;25.23;;
15285;SDS011;7744;52.172;10.668;2023-04-29T04:30:01;30.27;;;23.63;;
15285;SDS011;7744;52.172;10.668;2023-04-29T04:32:28;30.30;;;24.73;;
15285;SDS011;7744;52.172;10.668;2023-04-29T04:34:53;31.37;;;25.17;;
15285;SDS011;7744;52.172;10.668;2023-04-29T04:37:19;26.50;;;22.13;;
15285;SDS011;7744;52.172;10.668;2023-04-29T04:39:45;25.80;;;22.03;;
15285;SDS011;7744;52.172;10.668;2023-04-29T04:42:13;23.63;;;20.77;;
15285;SDS011;7744;52.172;10.668;2023-04-29T04:44:42;23.60;;;20.77;;
15285;SDS011;7744;52.172;10.668;2023-04-29T04:47:07;23.67;;;21.17;;
15285;SDS011;7744;52.172;10.668;2023-04-29T04:49:33;23.13;;;20.70;;
15285;SDS011;7744;52.172;10.668;2023-04-29T04:51:59;21.93;;;19.63;;
15285;SDS011;7744;52.172;10.668;2023-04-29T04:54:24;23.27;;;20.87;;
15285;SDS011;7744;52.172;10.668;2023-04-29T04:56:50;22.77;;;20.37;;
15285;SDS011;7744;52.172;10.668;2023-04-29T04:59:16;22.40;;;20.00;;
15285;SDS011;7744;52.172;10.668;2023-04-29T05:01:41;22.43;;;20.07;;
15285;SDS011;7744;52.172;10.668;2023-04-29T05:04:07;21.90;;;19.60;;
15285;SDS011;7744;52.172;10.668;2023-04-29T05:06:33;22.27;;;19.33;;
15285;SDS011;7744;52.172;10.668;2023-04-29T05:08:59;21.50;;;19.20;;
15285;SDS011;7744;52.172;10.668;2023-04-29T05:11:24;21.67;;;19.33;;
15285;SDS011;7744;52.172;10.668;2023-04-29T05:13:50;22.53;;;20.23;;
15285;SDS011;7744;52.172;10.668;2023-04-29T05:16:15;21.20;;;18.77;;
15285;SDS011;7744;52.172;10.668;2023-04-29T05:18:42;22.13;;;19.37;;
15285;SDS011;7744;52.172;10.668;2023-04-29T05:21:09;21.70;;;19.47;;
15285;SDS011;7744;52.172;10.668;2023-04-29T05:23:35;22.13;;;19.83;;
15285;SDS011;7744;52.172;10.668;2023-04-29T05:26:01;23.47;;;20.17;;
15285;SDS011;7744;52.172;10.668;2023-04-29T05:28:27;23.07;;;20.60;;
15285;SDS011;7744;52.172;10.668;2023-04-29T05:30:52;23.13;;;19.70;;
15285;SDS011;7744;52.172;10.668;2023-04-29T05:33:18;23.60;;;21.07;;
15285;SDS011;7744;52.172;10.668;2023-04-29T05:35:44;24.43;;;20.93;;
15285;SDS011;7744;52.172;10.668;2023-04-29T05:38:10;23.03;;;20.40;;
15285;SDS011;7744;52.172;10.668;2023-04-29T05:40:35;24.73;;;22.03;;
15285;SDS011;7744;52.172;10.668;2023-04-29T05:43:02;26.23;;;21.53;;
15285;SDS011;7744;52.172;10.668;2023-04-29T05:45:27;24.70;;;21.57;;
15285;SDS011;7744;52.172;10.668;2023-04-29T05:47:53;25.40;;;21.67;;
15285;SDS011;7744;52.172;10.668;2023-04-29T05:50:18;30.43;;;24.00;;
15285;SDS011;7744;52.172;10.668;2023-04-29T05:52:44;27.63;;;23.47;;
15285;SDS011;7744;52.172;10.668;2023-04-29T05:55:10;28.90;;;23.97;;
15285;SDS011;7744;52.172;10.668;2023-04-29T05:57:35;33.10;;;26.23;;
15285;SDS011;7744;52.172;10.668;2023-04-29T06:00:01;31.73;;;25.90;;
15285;SDS011;7744;52.172;10.668;2023-04-29T06:02:27;31.03;;;25.77;;
15285;SDS011;7744;52.172;10.668;2023-04-29T06:04:53;32.07;;;25.27;;
15285;SDS011;7744;52.172;10.668;2023-04-29T06:07:19;35.23;;;27.20;;
15285;SDS011;7744;52.172;10.668;2023-04-29T06:09:44;35.90;;;28.17;;
15285;SDS011;7744;52.172;10.668;2023-04-29T06:12:10;37.20;;;28.17;;
15285;SDS011;7744;52.172;10.668;2023-04-29T06:14:36;35.53;;;27.40;;
15285;SDS011;7744;52.172;10.668;2023-04-29T06:19:33;30.63;;;26.40;;
15285;SDS011;7744;52.172;10.668;2023-04-29T06:22:05;34.73;;;28.23;;
15285;SDS011;7744;52.172;10.668;2023-04-29T06:24:37;33.03;;;26.00;;
15285;SDS011;7744;52.172;10.668;2023-04-29T06:27:02;28.90;;;25.17;;
15285;SDS011;7744;52.172;10.668;2023-04-29T06:29:28;27.40;;;23.73;;
15285;SDS011;7744;52.172;10.668;2023-04-29T06:31:53;29.77;;;25.37;;
15285;SDS011;7744;52.172;10.668;2023-04-29T06:34:20;29.43;;;24.37;;
15285;SDS011;7744;52.172;10.668;2023-04-29T06:36:45;27.43;;;23.90;;
15285;SDS011;7744;52.172;10.668;2023-04-29T06:39:14;26.77;;;22.83;;
15285;SDS011;7744;52.172;10.668;2023-04-29T06:41:40;28.23;;;23.33;;
15285;SDS011;7744;52.172;10.668;2023-04-29T06:46:37;24.17;;;21.57;;
15285;SDS011;7744;52.172;10.668;2023-04-29T06:49:06;21.27;;;19.03;;
15285;SDS011;7744;52.172;10.668;2023-04-29T06:51:32;21.53;;;19.00;;
15285;SDS011;7744;52.172;10.668;2023-04-29T06:53:57;19.43;;;17.33;;
15285;SDS011;7744;52.172;10.668;2023-04-29T06:56:23;19.13;;;17.13;;
15285;SDS011;7744;52.172;10.668;2023-04-29T06:58:48;17.13;;;15.43;;
15285;SDS011;7744;52.172;10.668;2023-04-29T07:01:14;16.60;;;14.90;;
15285;SDS011;7744;52.172;10.668;2023-04-29T07:03:39;15.07;;;13.47;;
15285;SDS011;7744;52.172;10.668;2023-04-29T07:06:05;14.43;;;13.03;;
15285;SDS011;7744;52.172;10.668;2023-04-29T07:08:31;14.17;;;12.77;;
15285;SDS011;7744;52.172;10.668;2023-04-29T07:10:57;14.50;;;13.00;;
15285;SDS011;7744;52.172;10.668;2023-04-29T07:13:23;14.10;;;12.70;;
15285;SDS011;7744;52.172;10.668;2023-04-29T07:15:49;14.10;;;12.77;;
15285;SDS011;7744;52.172;10.668;2023-04-29T07:18:15;14.87;;;13.37;;
15285;SDS011;7744;52.172;10.668;2023-04-29T07:20:41;13.87;;;12.47;;
15285;SDS011;7744;52.172;10.668;2023-04-29T07:23:07;13.90;;;12.50;;
15285;SDS011;7744;52.172;10.668;2023-04-29T07:25:33;13.63;;;12.30;;
15285;SDS011;7744;52.172;10.668;2023-04-29T07:27:59;15.37;;;13.77;;
15285;SDS011;7744;52.172;10.668;2023-04-29T07:30:25;14.87;;;13.30;;
15285;SDS011;7744;52.172;10.668;2023-04-29T07:32:51;15.80;;;13.97;;
15285;SDS011;7744;52.172;10.668;2023-04-29T07:35:17;16.13;;;14.50;;
15285;SDS011;7744;52.172;10.668;2023-04-29T07:37:42;16.67;;;14.97;;
15285;SDS011;7744;52.172;10.668;2023-04-29T07:40:09;18.93;;;16.93;;
15285;SDS011;7744;52.172;10.668;2023-04-29T07:42:35;18.53;;;16.53;;
15285;SDS011;7744;52.172;10.668;2023-04-29T07:45:01;16.70;;;15.00;;
15285;SDS011;7744;52.172;10.668;2023-04-29T07:47:26;18.10;;;16.17;;
15285;SDS011;7744;52.172;10.668;2023-04-29T07:49:52;17.43;;;15.73;;
15285;SDS011;7744;52.172;10.668;2023-04-29T07:52:18;19.47;;;17.37;;
15285;SDS011;7744;52.172;10.668;2023-04-29T07:54:43;18.17;;;16.20;;
15285;SDS011;7744;52.172;10.668;2023-04-29T07:57:09;17.23;;;15.43;;
15285;SDS011;7744;52.172;10.668;2023-04-29T07:59:34;16.37;;;14.73;;
15285;SDS011;7744;52.172;10.668;2023-04-29T08:02:00;17.20;;;15.43;;
15285;SDS011;7744;52.172;10.668;2023-04-29T08:04:26;17.60;;;15.90;;
15285;SDS011;7744;52.172;10.668;2023-04-29T08:06:51;17.50;;;15.63;;
15285;SDS011;7744;52.172;10.668;2023-04-29T08:09:17;18.47;;;16.57;;
15285;SDS011;7744;52.172;10.668;2023-04-29T08:11:43;17.33;;;15.53;;
15285;SDS011;7744;52.172;10.668;2023-04-29T08:14:09;23.50;;;17.83;;
15285;SDS011;7744;52.172;10.668;2023-04-29T08:16:35;35.60;;;17.52;;
15285;SDS011;7744;52.172;10.668;2023-04-29T08:19:01;22.20;;;15.07;;
15285;SDS011;7744;52.172;10.668;2023-04-29T08:21:26;43.57;;;18.00;;
15285;SDS011;7744;52.172;10.668;2023-04-29T08:23:52;15.90;;;14.30;;
15285;SDS011;7744;52.172;10.668;2023-04-29T08:26:19;19.90;;;15.03;;
15285;SDS011;7744;52.172;10.668;2023-04-29T08:28:45;27.20;;;15.47;;
15285;SDS011;7744;52.172;10.668;2023-04-29T08:31:17;15.80;;;14.27;;
15285;SDS011;7744;52.172;10.668;2023-04-29T08:33:43;17.50;;;13.70;;
15285;SDS011;7744;52.172;10.668;2023-04-29T08:36:09;15.32;;;12.73;;
15285;SDS011;7744;52.172;10.668;2023-04-29T08:38:35;15.57;;;14.10;;
15285;SDS011;7744;52.172;10.668;2023-04-29T08:41:00;17.88;;;16.00;;
15285;SDS011;7744;52.172;10.668;2023-04-29T08:43:26;12.18;;;10.95;;
15285;SDS011;7744;52.172;10.668;2023-04-29T08:45:52;13.50;;;12.38;;
15285;SDS011;7744;52.172;10.668;2023-04-29T08:48:19;14.05;;;12.63;;
15285;SDS011;7744;52.172;10.668;2023-04-29T08:50:45;13.35;;;12.13;;
15285;SDS011;7744;52.172;10.668;2023-04-29T08:53:13;12.93;;;11.80;;
15285;SDS011;7744;52.172;10.668;2023-04-29T08:55:42;13.73;;;12.38;;
15285;SDS011;7744;52.172;10.668;2023-04-29T08:58:09;11.88;;;10.77;;
15285;SDS011;7744;52.172;10.668;2023-04-29T09:00:36;12.25;;;11.10;;
15285;SDS011;7744;52.172;10.668;2023-04-29T09:03:13;11.82;;;10.73;;
15285;SDS011;7744;52.172;10.668;2023-04-29T09:05:46;10.70;;;9.68;;
15285;SDS011;7744;52.172;10.668;2023-04-29T09:08:14;11.50;;;10.40;;
15285;SDS011;7744;52.172;10.668;2023-04-29T09:10:41;12.00;;;10.90;;
15285;SDS011;7744;52.172;10.668;2023-04-29T09:13:07;11.07;;;9.98;;
15285;SDS011;7744;52.172;10.668;2023-04-29T09:15:36;11.55;;;10.45;;
15285;SDS011;7744;52.172;10.668;2023-04-29T09:18:04;12.45;;;11.25;;
15285;SDS011;7744;52.172;10.668;2023-04-29T09:20:29;10.77;;;9.77;;
15285;SDS011;7744;52.172;10.668;2023-04-29T09:22:56;10.73;;;9.60;;
15285;SDS011;7744;52.172;10.668;2023-04-29T09:25:27;8.75;;;7.95;;
15285;SDS011;7744;52.172;10.668;2023-04-29T09:27:55;9.30;;;8.40;;
15285;SDS011;7744;52.172;10.668;2023-04-29T09:30:25;10.27;;;9.23;;
15285;SDS011;7744;52.172;10.668;2023-04-29T09:33:09;10.15;;;9.25;;
15285;SDS011;7744;52.172;10.668;2023-04-29T09:35:50;11.32;;;10.20;;
15285;SDS011;7744;52.172;10.668;2023-04-29T09:39:12;10.80;;;9.77;;
15285;SDS011;7744;52.172;10.668;2023-04-29T09:42:28;11.27;;;10.10;;
15285;SDS011;7744;52.172;10.668;2023-04-29T09:44:54;10.98;;;9.98;;
15285;SDS011;7744;52.172;10.668;2023-04-29T09:47:28;10.20;;;9.20;;
15285;SDS011;7744;52.172;10.668;2023-04-29T09:49:55;11.07;;;10.13;;
15285;SDS011;7744;52.172;10.668;2023-04-29T09:52:40;10.65;;;9.55;;
15285;SDS011;7744;52.172;10.668;2023-04-29T09:58:33;11.45;;;10.30;;
15285;SDS011;7744;52.172;10.668;2023-04-29T10:01:03;10.10;;;9.10;;
15285;SDS011;7744;52.172;10.668;2023-04-29T10:03:30;9.93;;;9.00;;
15285;SDS011;7744;52.172;10.668;2023-04-29T10:06:01;8.68;;;7.10;;
15285;SDS011;7744;52.172;10.668;2023-04-29T10:08:28;7.60;;;6.90;;
15285;SDS011;7744;52.172;10.668;2023-04-29T10:11:06;9.18;;;7.15;;
15285;SDS011;7744;52.172;10.668;2023-04-29T10:13:39;8.20;;;7.20;;
15285;SDS011;7744;52.172;10.668;2023-04-29T10:16:13;8.15;;;7.40;;
15285;SDS011;7744;52.172;10.668;2023-04-29T10:18:48;8.07;;;7.28;;
15285;SDS011;7744;52.172;10.668;2023-04-29T10:24:57;7.68;;;6.80;;
15285;SDS011;7744;52.172;10.668;2023-04-29T10:27:32;7.50;;;6.78;;
15285;SDS011;7744;52.172;10.668;2023-04-29T10:33:45;7.85;;;6.82;;
15285;SDS011;7744;52.172;10.668;2023-04-29T10:36:49;7.60;;;6.90;;
15285;SDS011;7744;52.172;10.668;2023-04-29T10:42:46;6.80;;;6.20;;
15285;SDS011;7744;52.172;10.668;2023-04-29T10:57:43;7.40;;;6.50;;
15285;SDS011;7744;52.172;10.668;2023-04-29T11:00:20;6.82;;;6.22;;
15285;SDS011;7744;52.172;10.668;2023-04-29T11:23:02;7.10;;;6.35;;
15285;SDS011;7744;52.172;10.668;2023-04-29T11:35:53;7.05;;;6.20;;
15285;SDS011;7744;52.172;10.668;2023-04-29T11:38:26;7.10;;;6.13;;
15285;SDS011;7744;52.172;10.668;2023-04-29T11:40:58;7.50;;;6.60;;
15285;SDS011;7744;52.172;10.668;2023-04-29T11:43:26;7.07;;;6.13;;
15285;SDS011;7744;52.172;10.668;2023-04-29T11:45:55;6.72;;;6.03;;
15285;SDS011;7744;52.172;10.668;2023-04-29T11:48:26;6.90;;;6.30;;
